createdAt,value
2023-05-07T00:00:10.462Z,3.90
2023-05-07T00:02:59.775Z,3.83
2023-05-07T00:05:29.256Z,3.87
2023-05-07T00:07:59.638Z,3.73
2023-05-07T00:10:28.950Z,3.65
2023-05-07T00:12:57.879Z,3.61
2023-05-07T00:15:28.455Z,3.64
2023-05-07T00:17:58.628Z,3.59
2023-05-07T00:20:27.797Z,3.58
2023-05-07T00:22:56.682Z,3.54
2023-05-07T00:25:25.800Z,3.48
2023-05-07T00:27:54.695Z,3.48
2023-05-07T00:30:23.861Z,3.39
2023-05-07T00:32:54.089Z,3.38
2023-05-07T00:35:23.127Z,3.44
2023-05-07T00:37:52.002Z,3.39
2023-05-07T00:40:21.075Z,3.27
2023-05-07T00:42:50.096Z,3.28
2023-05-07T00:45:19.201Z,3.30
2023-05-07T00:47:48.195Z,3.23
2023-05-07T00:50:20.172Z,3.17
2023-05-07T00:52:49.191Z,3.09
2023-05-07T00:55:18.326Z,3.06
2023-05-07T00:57:47.475Z,3.04
2023-05-07T01:00:16.704Z,2.98
2023-05-07T01:02:45.787Z,3.04
2023-05-07T01:05:17.354Z,2.89
2023-05-07T01:07:48.815Z,2.86
2023-05-07T01:10:18.123Z,2.83
2023-05-07T01:12:48.178Z,2.88
2023-05-07T01:15:17.573Z,2.84
2023-05-07T01:17:46.656Z,2.75
2023-05-07T01:20:22.759Z,2.80
2023-05-07T01:22:55.556Z,2.71
2023-05-07T01:25:25.465Z,2.75
2023-05-07T01:27:57.152Z,2.69
2023-05-07T01:30:31.870Z,2.68
2023-05-07T01:33:05.176Z,2.62
2023-05-07T01:35:38.601Z,2.62
2023-05-07T01:38:11.417Z,2.54
2023-05-07T01:40:40.935Z,2.63
2023-05-07T01:43:10.218Z,2.52
2023-05-07T01:45:40.874Z,2.44
2023-05-07T01:48:10.688Z,2.47
2023-05-07T01:50:39.821Z,2.41
2023-05-07T01:53:08.718Z,2.40
2023-05-07T01:55:39.192Z,2.35
2023-05-07T01:58:08.111Z,2.29
2023-05-07T02:00:37.328Z,2.28
2023-05-07T02:03:06.707Z,2.22
2023-05-07T02:05:43.847Z,2.18
2023-05-07T02:08:29.876Z,2.29
2023-05-07T02:11:00.991Z,2.21
2023-05-07T02:13:31.696Z,2.18
2023-05-07T02:16:00.972Z,2.10
2023-05-07T02:18:30.670Z,2.17
2023-05-07T02:20:59.857Z,2.21
2023-05-07T02:23:28.637Z,2.22
2023-05-07T02:25:57.980Z,2.10
2023-05-07T02:28:28.124Z,2.01
2023-05-07T02:31:20.536Z,1.95
2023-05-07T02:33:49.568Z,1.92
2023-05-07T02:36:19.012Z,1.86
2023-05-07T02:38:56.804Z,1.84
2023-05-07T02:41:25.949Z,1.82
2023-05-07T02:43:56.237Z,1.77
2023-05-07T02:46:25.949Z,1.76
2023-05-07T02:49:02.036Z,1.68
2023-05-07T02:51:32.131Z,1.68
2023-05-07T02:54:04.505Z,1.64
2023-05-07T02:56:34.867Z,1.66
2023-05-07T02:59:05.174Z,1.77
2023-05-07T03:01:39.023Z,1.66
2023-05-07T03:04:09.830Z,1.64
2023-05-07T03:06:38.961Z,1.55
2023-05-07T03:09:08.281Z,1.48
2023-05-07T03:11:37.483Z,1.44
2023-05-07T03:14:07.788Z,1.43
2023-05-07T03:16:37.207Z,1.42
2023-05-07T03:19:07.026Z,1.56
2023-05-07T03:21:36.301Z,1.51
2023-05-07T03:24:05.235Z,1.48
2023-05-07T03:26:34.399Z,1.41
2023-05-07T03:29:03.184Z,1.36
2023-05-07T03:31:33.951Z,1.36
2023-05-07T03:34:03.936Z,1.33
2023-05-07T03:36:33.032Z,1.34
2023-05-07T03:39:01.864Z,1.48
2023-05-07T03:41:38.787Z,1.69
2023-05-07T03:44:07.852Z,1.78
2023-05-07T03:46:38.958Z,1.87
2023-05-07T03:49:08.014Z,1.90
2023-05-07T03:51:37.761Z,1.99
2023-05-07T03:54:08.078Z,2.13
2023-05-07T03:56:37.396Z,2.14
2023-05-07T03:59:06.147Z,2.14
2023-05-07T04:01:35.493Z,2.14
2023-05-07T04:04:06.181Z,2.20
2023-05-07T04:06:37.565Z,2.26
2023-05-07T04:09:06.463Z,2.35
2023-05-07T04:11:35.871Z,2.42
2023-05-07T04:14:04.795Z,2.53
2023-05-07T04:16:34.032Z,2.64
2023-05-07T04:19:03.258Z,2.70
2023-05-07T04:21:34.489Z,2.77
2023-05-07T04:24:05.142Z,2.82
2023-05-07T04:26:34.994Z,2.90
2023-05-07T04:29:03.790Z,2.94
2023-05-07T04:31:36.432Z,3.06
2023-05-07T04:34:05.415Z,3.18
2023-05-07T04:36:36.029Z,3.26
2023-05-07T04:39:11.592Z,3.38
2023-05-07T04:41:42.812Z,3.45
2023-05-07T04:44:12.461Z,3.53
2023-05-07T04:46:41.709Z,3.66
2023-05-07T04:49:11.340Z,3.76
2023-05-07T04:51:45.048Z,3.85
2023-05-07T04:54:16.186Z,3.99
2023-05-07T04:56:45.626Z,4.04
2023-05-07T04:59:14.398Z,4.13
2023-05-07T05:01:43.825Z,4.21
2023-05-07T05:04:12.822Z,4.35
2023-05-07T05:06:44.020Z,4.47
2023-05-07T05:09:14.058Z,4.60
2023-05-07T05:11:44.521Z,4.66
2023-05-07T05:14:13.707Z,4.79
2023-05-07T05:16:43.585Z,4.93
2023-05-07T05:19:13.039Z,5.04
2023-05-07T05:21:45.016Z,5.15
2023-05-07T05:24:15.102Z,5.28
2023-05-07T05:26:44.517Z,5.45
2023-05-07T05:29:13.697Z,5.58
2023-05-07T05:31:44.917Z,5.72
2023-05-07T05:34:13.940Z,5.84
2023-05-07T05:36:45.798Z,5.97
2023-05-07T05:39:15.798Z,6.13
2023-05-07T05:41:45.657Z,6.28
2023-05-07T05:44:16.099Z,6.42
2023-05-07T05:46:46.240Z,6.56
2023-05-07T05:49:15.837Z,6.69
2023-05-07T05:51:47.059Z,6.85
2023-05-07T05:54:16.917Z,7.01
2023-05-07T05:56:46.081Z,7.13
2023-05-07T05:59:16.075Z,7.27
2023-05-07T06:01:45.882Z,7.39
2023-05-07T06:04:14.733Z,7.53
2023-05-07T06:06:44.427Z,7.66
2023-05-07T06:09:15.293Z,7.79
2023-05-07T06:11:46.879Z,7.93
2023-05-07T06:14:16.202Z,8.06
2023-05-07T06:16:45.958Z,8.21
2023-05-07T06:19:14.951Z,8.33
2023-05-07T06:21:45.698Z,8.48
2023-05-07T06:24:16.103Z,8.58
2023-05-07T06:26:45.937Z,8.70
2023-05-07T06:29:15.850Z,8.83
2023-05-07T06:31:45.860Z,8.98
2023-05-07T06:34:16.180Z,9.08
2023-05-07T06:36:45.674Z,9.19
2023-05-07T06:39:24.864Z,9.32
2023-05-07T06:41:55.584Z,9.43
2023-05-07T06:44:29.089Z,9.57
2023-05-07T06:47:08.366Z,9.67
2023-05-07T06:49:41.346Z,9.81
2023-05-07T06:52:10.850Z,9.91
2023-05-07T06:54:41.203Z,10.00
2023-05-07T06:57:10.969Z,10.14
2023-05-07T06:59:39.849Z,10.25
2023-05-07T07:02:09.613Z,10.37
2023-05-07T07:04:39.747Z,10.46
2023-05-07T07:07:12.590Z,10.56
2023-05-07T07:09:44.617Z,10.68
2023-05-07T07:12:15.292Z,10.77
2023-05-07T07:14:45.206Z,10.89
2023-05-07T07:17:15.508Z,11.01
2023-05-07T07:19:44.303Z,11.13
2023-05-07T07:22:13.645Z,11.25
2023-05-07T07:24:44.085Z,11.31
2023-05-07T07:27:15.566Z,11.41
2023-05-07T07:29:44.479Z,11.47
2023-05-07T07:32:14.041Z,11.57
2023-05-07T07:34:43.352Z,11.64
2023-05-07T07:37:12.672Z,11.73
2023-05-07T07:39:42.190Z,11.81
2023-05-07T07:42:13.330Z,11.87
2023-05-07T07:44:43.470Z,11.94
2023-05-07T07:47:15.385Z,12.03
2023-05-07T07:49:45.446Z,12.10
2023-05-07T07:52:14.707Z,12.15
2023-05-07T07:54:45.088Z,12.25
2023-05-07T07:57:16.135Z,12.30
2023-05-07T07:59:45.407Z,12.32
2023-05-07T08:02:16.081Z,12.43
2023-05-07T08:04:45.593Z,12.52
2023-05-07T08:07:14.946Z,12.62
2023-05-07T08:09:46.831Z,12.71
2023-05-07T08:12:18.059Z,12.79
2023-05-07T08:14:47.133Z,12.79
2023-05-07T08:17:17.107Z,12.85
2023-05-07T08:19:47.146Z,12.96
2023-05-07T08:22:19.109Z,13.03
2023-05-07T08:24:48.072Z,13.14
2023-05-07T08:27:18.592Z,13.20
2023-05-07T08:29:49.135Z,13.25
2023-05-07T08:32:20.585Z,13.31
2023-05-07T08:34:49.566Z,13.36
2023-05-07T08:37:18.942Z,13.45
2023-05-07T08:39:48.458Z,13.47
2023-05-07T08:42:25.355Z,13.50
2023-05-07T08:44:56.702Z,13.57
2023-05-07T08:47:27.191Z,13.64
2023-05-07T08:49:56.564Z,13.68
2023-05-07T08:52:26.636Z,13.73
2023-05-07T08:54:55.951Z,13.78
2023-05-07T08:57:28.137Z,13.87
2023-05-07T08:59:57.050Z,13.94
2023-05-07T09:02:26.628Z,13.96
2023-05-07T09:04:56.814Z,14.01
2023-05-07T09:07:27.041Z,14.06
2023-05-07T09:09:56.698Z,14.13
2023-05-07T09:12:26.068Z,14.24
2023-05-07T09:14:56.409Z,14.22
2023-05-07T09:17:25.813Z,14.26
2023-05-07T09:19:55.195Z,14.33
2023-05-07T09:22:24.479Z,14.39
2023-05-07T09:25:03.736Z,14.46
2023-05-07T09:27:33.545Z,14.48
2023-05-07T09:30:07.276Z,14.56
2023-05-07T09:32:39.247Z,14.60
2023-05-07T09:35:17.088Z,14.71
2023-05-07T09:37:47.985Z,14.75
2023-05-07T09:40:24.598Z,14.82
2023-05-07T09:42:55.730Z,14.87
2023-05-07T09:45:28.553Z,14.93
2023-05-07T09:47:59.592Z,14.96
2023-05-07T09:50:31.963Z,15.04
2023-05-07T09:53:01.675Z,15.07
2023-05-07T09:55:30.970Z,15.10
2023-05-07T09:58:00.971Z,15.12
2023-05-07T10:00:33.673Z,15.20
2023-05-07T10:03:11.925Z,15.16
2023-05-07T10:05:53.834Z,15.18
2023-05-07T10:08:25.324Z,15.19
2023-05-07T10:10:57.940Z,15.11
2023-05-07T10:13:29.999Z,15.13
2023-05-07T10:16:02.682Z,15.20
2023-05-07T10:18:37.309Z,15.27
2023-05-07T10:21:13.940Z,15.24
2023-05-07T10:23:43.709Z,15.23
2023-05-07T10:26:14.474Z,15.29
2023-05-07T10:28:45.559Z,15.32
2023-05-07T10:31:38.126Z,15.33
2023-05-07T10:34:12.599Z,15.26
2023-05-07T10:36:42.172Z,15.31
2023-05-07T10:39:12.789Z,15.30
2023-05-07T10:41:42.785Z,15.33
2023-05-07T10:44:13.191Z,15.37
2023-05-07T10:46:43.623Z,15.42
2023-05-07T10:49:18.008Z,15.41
2023-05-07T10:52:13.506Z,15.49
2023-05-07T10:54:44.303Z,15.56
2023-05-07T10:57:30.702Z,15.65
2023-05-07T11:00:00.992Z,15.65
2023-05-07T11:02:49.173Z,15.68
2023-05-07T11:05:23.185Z,15.76
2023-05-07T11:07:59.815Z,15.79
2023-05-07T11:10:51.822Z,15.79
2023-05-07T11:13:45.052Z,15.79
2023-05-07T11:16:21.765Z,15.87
2023-05-07T11:18:55.081Z,15.94
2023-05-07T11:21:35.895Z,15.97
2023-05-07T11:24:31.172Z,16.01
2023-05-07T11:27:04.565Z,16.01
2023-05-07T11:29:34.413Z,16.07
2023-05-07T11:32:14.666Z,16.05
2023-05-07T11:34:53.646Z,16.11
2023-05-07T11:37:24.971Z,16.12
2023-05-07T11:40:05.495Z,16.08
2023-05-07T11:42:35.759Z,16.16
2023-05-07T11:45:05.054Z,16.15
2023-05-07T11:47:34.348Z,16.10
2023-05-07T11:50:07.453Z,16.11
2023-05-07T11:52:39.548Z,16.12
2023-05-07T11:55:09.417Z,16.14
2023-05-07T11:57:38.759Z,16.19
2023-05-07T12:00:09.118Z,16.08
2023-05-07T12:02:45.088Z,16.10
2023-05-07T12:05:14.643Z,16.04
2023-05-07T12:07:45.528Z,16.07
2023-05-07T12:10:15.164Z,16.06
2023-05-07T12:12:47.981Z,16.08
2023-05-07T12:15:18.022Z,16.07
2023-05-07T12:17:47.454Z,16.01
2023-05-07T12:20:16.714Z,16.04
2023-05-07T12:22:47.580Z,16.08
2023-05-07T12:25:20.508Z,16.08
2023-05-07T12:27:53.601Z,16.05
2023-05-07T12:30:22.670Z,16.12
2023-05-07T12:32:54.638Z,16.13
2023-05-07T12:35:28.660Z,16.20
2023-05-07T12:38:00.914Z,16.25
2023-05-07T12:40:37.595Z,16.19
2023-05-07T12:43:06.815Z,16.21
2023-05-07T12:45:39.118Z,16.29
2023-05-07T12:48:08.511Z,16.31
2023-05-07T12:50:37.344Z,16.33
2023-05-07T12:53:09.017Z,16.41
2023-05-07T12:55:45.254Z,16.46
2023-05-07T12:58:21.034Z,16.47
2023-05-07T13:00:50.508Z,16.46
2023-05-07T13:03:26.357Z,16.53
2023-05-07T13:05:58.709Z,16.56
2023-05-07T13:08:33.657Z,16.52
2023-05-07T13:11:04.544Z,16.60
2023-05-07T13:13:34.266Z,16.58
2023-05-07T13:16:03.639Z,16.55
2023-05-07T13:18:33.753Z,16.62
2023-05-07T13:21:03.458Z,16.65
2023-05-07T13:23:33.875Z,16.71
2023-05-07T13:26:08.404Z,16.75
2023-05-07T13:28:40.879Z,16.74
2023-05-07T13:31:09.700Z,16.81
2023-05-07T13:33:38.984Z,16.92
2023-05-07T13:36:08.090Z,16.94
2023-05-07T13:38:38.709Z,17.04
2023-05-07T13:41:07.652Z,17.25
2023-05-07T13:43:36.734Z,17.47
2023-05-07T13:46:05.700Z,17.68
2023-05-07T13:48:34.738Z,18.00
2023-05-07T13:51:03.981Z,18.42
2023-05-07T13:53:33.081Z,19.01
2023-05-07T13:56:05.675Z,19.57
2023-05-07T13:58:36.541Z,20.14
2023-05-07T14:01:07.177Z,20.71
2023-05-07T14:03:38.851Z,21.05
2023-05-07T14:06:07.978Z,21.63
2023-05-07T14:08:37.010Z,22.22
2023-05-07T14:11:07.353Z,22.67
2023-05-07T14:13:36.894Z,23.20
2023-05-07T14:16:06.452Z,23.67
2023-05-07T14:18:38.203Z,23.94
2023-05-07T14:21:08.603Z,24.16
2023-05-07T14:23:37.824Z,24.67
2023-05-07T14:26:08.224Z,24.96
2023-05-07T14:28:37.424Z,25.21
2023-05-07T14:31:06.453Z,25.62
2023-05-07T14:33:36.031Z,25.83
2023-05-07T14:36:05.052Z,25.99
2023-05-07T14:38:34.758Z,26.22
2023-05-07T14:41:03.504Z,26.29
2023-05-07T14:43:34.144Z,26.22
2023-05-07T14:46:03.065Z,26.44
2023-05-07T14:48:32.130Z,26.75
2023-05-07T14:51:01.078Z,26.93
2023-05-07T14:53:30.072Z,27.21
2023-05-07T14:55:59.037Z,27.34
2023-05-07T14:58:28.127Z,27.47
2023-05-07T15:00:58.415Z,27.54
2023-05-07T15:03:27.773Z,27.77
2023-05-07T15:05:56.696Z,27.93
2023-05-07T15:08:25.976Z,28.07
2023-05-07T15:10:56.138Z,27.99
2023-05-07T15:13:25.380Z,28.07
2023-05-07T15:15:54.186Z,28.17
2023-05-07T15:18:24.986Z,28.28
2023-05-07T15:20:53.936Z,28.26
2023-05-07T15:23:22.969Z,28.53
2023-05-07T15:25:52.701Z,28.40
2023-05-07T15:28:22.001Z,28.32
2023-05-07T15:30:50.917Z,28.49
2023-05-07T15:33:20.140Z,28.76
2023-05-07T15:35:50.547Z,28.70
2023-05-07T15:38:19.702Z,29.09
2023-05-07T15:40:48.460Z,29.26
2023-05-07T15:43:17.719Z,28.98
2023-05-07T15:45:46.710Z,29.18
2023-05-07T15:48:15.920Z,29.18
2023-05-07T15:50:44.761Z,29.60
2023-05-07T15:53:15.373Z,29.53
2023-05-07T15:55:44.521Z,29.67
2023-05-07T15:58:13.635Z,29.56
2023-05-07T16:00:42.492Z,29.18
2023-05-07T16:03:12.016Z,29.02
2023-05-07T16:05:41.064Z,29.17
2023-05-07T16:08:10.399Z,29.14
2023-05-07T16:10:43.379Z,29.29
2023-05-07T16:13:13.492Z,29.57
2023-05-07T16:15:42.993Z,29.38
2023-05-07T16:18:12.271Z,29.26
2023-05-07T16:20:41.807Z,29.19
2023-05-07T16:23:10.914Z,28.58
2023-05-07T16:25:41.132Z,28.10
2023-05-07T16:28:10.483Z,27.79
2023-05-07T16:30:39.358Z,27.53
2023-05-07T16:33:08.439Z,26.92
2023-05-07T16:35:37.225Z,26.42
2023-05-07T16:38:10.232Z,25.69
2023-05-07T16:40:41.404Z,25.38
2023-05-07T16:43:11.500Z,25.20
2023-05-07T16:45:40.727Z,24.35
2023-05-07T16:48:10.053Z,23.24
2023-05-07T16:50:39.177Z,22.81
2023-05-07T16:53:08.270Z,22.40
2023-05-07T16:55:39.051Z,22.18
2023-05-07T16:58:10.438Z,21.80
2023-05-07T17:00:50.213Z,21.16
2023-05-07T17:03:20.367Z,20.96
2023-05-07T17:05:49.372Z,20.29
2023-05-07T17:08:18.416Z,19.80
2023-05-07T17:10:47.454Z,19.79
2023-05-07T17:13:17.996Z,19.52
2023-05-07T17:15:47.764Z,19.22
2023-05-07T17:18:17.123Z,18.69
2023-05-07T17:20:46.006Z,18.84
2023-05-07T17:23:15.434Z,18.74
2023-05-07T17:25:45.581Z,18.18
2023-05-07T17:28:14.946Z,17.83
2023-05-07T17:30:46.456Z,17.88
2023-05-07T17:33:21.500Z,17.65
2023-05-07T17:35:51.055Z,17.42
2023-05-07T17:38:20.180Z,16.99
2023-05-07T17:40:50.255Z,17.04
2023-05-07T17:43:19.269Z,16.58
2023-05-07T17:45:49.672Z,16.67
2023-05-07T17:48:19.007Z,16.57
2023-05-07T17:50:47.891Z,16.29
2023-05-07T17:53:17.352Z,16.07
2023-05-07T17:55:46.502Z,15.98
2023-05-07T17:58:16.017Z,15.49
2023-05-07T18:00:45.011Z,15.49
2023-05-07T18:03:15.707Z,15.30
2023-05-07T18:05:44.682Z,15.32
2023-05-07T18:08:13.735Z,15.22
2023-05-07T18:10:43.778Z,15.01
2023-05-07T18:13:13.144Z,15.05
2023-05-07T18:15:42.207Z,14.89
2023-05-07T18:18:11.692Z,14.87
2023-05-07T18:20:41.954Z,14.62
2023-05-07T18:23:11.274Z,14.59
2023-05-07T18:25:40.236Z,14.38
2023-05-07T18:28:09.469Z,14.33
2023-05-07T18:30:38.236Z,14.14
2023-05-07T18:33:07.862Z,14.07
2023-05-07T18:35:36.878Z,13.88
2023-05-07T18:38:07.835Z,13.84
2023-05-07T18:40:36.832Z,13.77
2023-05-07T18:43:07.172Z,13.65
2023-05-07T18:45:37.887Z,13.53
2023-05-07T18:48:13.972Z,13.44
2023-05-07T18:50:45.850Z,13.31
2023-05-07T18:53:16.394Z,13.17
2023-05-07T18:55:47.092Z,13.08
2023-05-07T18:58:17.032Z,13.00
2023-05-07T19:00:46.125Z,12.86
2023-05-07T19:03:15.989Z,12.77
2023-05-07T19:05:45.248Z,12.66
2023-05-07T19:08:14.702Z,12.57
2023-05-07T19:10:45.613Z,12.45
2023-05-07T19:13:14.970Z,12.32
2023-05-07T19:15:43.911Z,12.18
2023-05-07T19:18:13.280Z,12.08
2023-05-07T19:20:42.434Z,11.99
2023-05-07T19:23:12.150Z,11.94
2023-05-07T19:25:40.947Z,11.85
2023-05-07T19:28:11.624Z,11.67
2023-05-07T19:30:40.929Z,11.61
2023-05-07T19:33:10.274Z,11.54
2023-05-07T19:35:39.517Z,11.45
2023-05-07T19:38:08.572Z,11.39
2023-05-07T19:40:37.685Z,11.28
2023-05-07T19:43:07.097Z,11.19
2023-05-07T19:45:37.701Z,11.12
2023-05-07T19:48:07.352Z,10.97
2023-05-07T19:50:37.391Z,10.82
2023-05-07T19:53:06.672Z,10.73
2023-05-07T19:55:35.517Z,10.69
2023-05-07T19:58:04.720Z,10.59
2023-05-07T20:00:33.952Z,10.42
2023-05-07T20:03:05.026Z,10.36
2023-05-07T20:05:35.335Z,10.27
2023-05-07T20:08:04.404Z,10.17
2023-05-07T20:10:33.755Z,10.08
2023-05-07T20:13:02.872Z,9.97
2023-05-07T20:15:31.833Z,9.86
2023-05-07T20:18:00.854Z,9.77
2023-05-07T20:20:33.315Z,9.64
2023-05-07T20:23:02.572Z,9.56
2023-05-07T20:25:31.542Z,9.55
2023-05-07T20:28:01.286Z,9.46
2023-05-07T20:30:30.568Z,9.44
2023-05-07T20:32:59.611Z,9.35
2023-05-07T20:35:31.206Z,9.24
2023-05-07T20:38:00.441Z,9.18
2023-05-07T20:40:29.201Z,9.06
2023-05-07T20:42:58.411Z,8.94
2023-05-07T20:45:27.187Z,8.92
2023-05-07T20:47:56.402Z,8.80
2023-05-07T20:50:26.341Z,8.63
2023-05-07T20:52:56.981Z,8.54
2023-05-07T20:55:25.859Z,8.58
2023-05-07T20:57:55.034Z,8.55
2023-05-07T21:00:23.918Z,8.48
2023-05-07T21:02:53.402Z,8.41
2023-05-07T21:05:22.342Z,8.19
2023-05-07T21:07:51.373Z,8.21
2023-05-07T21:10:21.631Z,8.18
2023-05-07T21:12:53.758Z,8.07
2023-05-07T21:15:22.698Z,8.00
2023-05-07T21:17:51.765Z,7.89
2023-05-07T21:20:20.826Z,7.72
2023-05-07T21:22:50.135Z,7.73
2023-05-07T21:25:19.206Z,7.67
2023-05-07T21:27:49.797Z,7.52
2023-05-07T21:30:18.631Z,7.49
2023-05-07T21:32:47.750Z,7.39
2023-05-07T21:35:16.742Z,7.27
2023-05-07T21:37:45.929Z,7.16
2023-05-07T21:40:15.251Z,7.20
2023-05-07T21:42:44.647Z,7.13
2023-05-07T21:45:15.166Z,7.03
2023-05-07T21:47:44.593Z,6.96
2023-05-07T21:50:13.899Z,6.82
2023-05-07T21:52:43.354Z,6.84
2023-05-07T21:55:12.580Z,6.76
2023-05-07T21:57:47.977Z,6.72
2023-05-07T22:00:24.442Z,6.60
2023-05-07T22:02:54.854Z,6.38
2023-05-07T22:05:26.931Z,6.39
2023-05-07T22:07:56.026Z,6.27
2023-05-07T22:10:24.869Z,6.36
2023-05-07T22:12:54.162Z,6.31
2023-05-07T22:15:24.359Z,6.14
2023-05-07T22:17:54.792Z,6.04
2023-05-07T22:20:23.639Z,5.99
2023-05-07T22:22:54.239Z,5.87
2023-05-07T22:25:23.581Z,5.88
2023-05-07T22:27:53.090Z,5.93
2023-05-07T22:30:21.924Z,5.82
2023-05-07T22:32:52.459Z,5.83
2023-05-07T22:35:21.312Z,5.76
2023-05-07T22:37:50.378Z,5.71
2023-05-07T22:40:19.364Z,5.69
2023-05-07T22:42:48.512Z,5.64
2023-05-07T22:45:17.312Z,5.46
2023-05-07T22:47:46.501Z,5.48
2023-05-07T22:50:16.778Z,5.34
2023-05-07T22:52:45.985Z,5.37
2023-05-07T22:55:14.895Z,5.34
2023-05-07T22:57:44.115Z,5.15
2023-05-07T23:00:13.805Z,5.10
2023-05-07T23:02:43.222Z,5.16
2023-05-07T23:05:12.272Z,5.05
2023-05-07T23:07:42.824Z,5.01
2023-05-07T23:10:12.137Z,4.97
2023-05-07T23:12:41.357Z,4.86
2023-05-07T23:15:10.470Z,4.85
2023-05-07T23:17:39.614Z,4.92
2023-05-07T23:20:09.298Z,4.81
2023-05-07T23:22:42.980Z,4.78
2023-05-07T23:25:11.959Z,4.62
2023-05-07T23:27:41.002Z,4.55
2023-05-07T23:30:11.197Z,4.50
2023-05-07T23:32:40.625Z,4.48
2023-05-07T23:35:10.013Z,4.41
2023-05-07T23:37:39.272Z,4.40
2023-05-07T23:40:10.070Z,4.36
2023-05-07T23:42:39.379Z,4.26
2023-05-07T23:45:08.423Z,4.22
2023-05-07T23:47:37.986Z,4.25
2023-05-07T23:50:07.324Z,4.19
2023-05-07T23:52:36.597Z,4.09
2023-05-07T23:55:05.560Z,4.08
2023-05-07T23:57:36.087Z,4.08
